Parandowski — 9HA4641 — position and weather

sailwx.info

Track history (hours):
 
Tides and Currents Weather Stations Pressure Air Temp Water Temp Dewpoint Dewpoint Depression Visibility Wind Speed Wind Dir Waves Ship Positions

Parandowski

Last reported at 2017-Nov-05 13:31 UTC. Time now 2017-Nov-21 04:51 UTC.
Position N 37°43' E 121°07'.
Warning: this ship's position is 15 days out of date.

Length 200 m; draft 11.3 m.

Type: Ship. MMSI: 248403000.

Date/timePositionNaut miles runAvg speedWind from/ knotsBaromVisibWave heightAir tempDewpointWater temp
2017-Nov-05 13:31N 37°43' E 121°07'0 0.0
2017-Nov-05 13:28N 37°43' E 121°07'0 0.0
2017-Nov-05 13:00N 37°43' E 121°07'0 0.0
2017-Nov-05 12:30N 37°43' E 121°07'0 0.0
2017-Nov-05 12:00N 37°43' E 121°07'0 0.3
2017-Nov-05 11:31N 37°43' E 121°07'2 3.6
2017-Nov-05 11:00N 37°45' E 121°08'4 7.0
2017-Nov-05 10:29N 37°47' E 121°12'4 8.7
2017-Nov-05 10:00N 37°49' E 121°16'1 1.2
2017-Nov-05 09:27N 37°49' E 121°17'0 0.1
2017-Nov-05 09:00N 37°49' E 121°17'0 0.1
2017-Nov-05 08:24N 37°50' E 121°17'0 0.1
2017-Nov-05 07:54N 37°50' E 121°17'0 0.0
2017-Nov-05 07:30N 37°50' E 121°17'0 0.1
2017-Nov-05 06:51N 37°50' E 121°17'0 0.1
2017-Nov-05 06:30N 37°50' E 121°17'0 0.3
2017-Nov-05 06:00N 37°50' E 121°17'0 0.3
2017-Nov-05 05:30N 37°50' E 121°17'0 0.0
2017-Nov-05 05:00N 37°50' E 121°17'0 0.0
2017-Nov-05 04:30N 37°50' E 121°17'0 0.0
2017-Nov-05 03:54N 37°50' E 121°17'0 0.1
2017-Nov-05 03:30N 37°50' E 121°17'0 0.0
2017-Nov-05 02:57N 37°50' E 121°17'0 0.0
2017-Nov-05 02:30N 37°50' E 121°17'0 0.1
2017-Nov-05 02:00N 37°50' E 121°17'0 0.0
2017-Nov-05 01:30N 37°50' E 121°17'0 0.1
2017-Nov-05 01:00N 37°50' E 121°17'0 0.1
2017-Nov-05 00:24N 37°50' E 121°17'0 0.0
2017-Nov-05 00:00N 37°50' E 121°17'0 0.0
2017-Nov-04 23:27N 37°50' E 121°17'0 0.1
2017-Nov-04 22:57N 37°50' E 121°17'0 0.1
2017-Nov-04 22:30N 37°50' E 121°17'0 0.0
2017-Nov-04 21:57N 37°50' E 121°17'0 0.0
2017-Nov-04 21:30N 37°50' E 121°17'0 0.0
2017-Nov-04 20:54N 37°50' E 121°17'0 0.1
2017-Nov-04 20:24N 37°50' E 121°17'0 0.0
2017-Nov-04 20:00N 37°50' E 121°17'0 0.1
2017-Nov-04 19:30N 37°50' E 121°17'0 0.1
2017-Nov-04 18:56N 37°50' E 121°17'0 0.0
2017-Nov-04 18:26N 37°50' E 121°17'0 0.0
2017-Nov-04 17:59N 37°50' E 121°17'0 0.0
2017-Nov-04 17:29N 37°50' E 121°17'0 0.1
2017-Nov-04 16:59N 37°50' E 121°17'0 0.1
2017-Nov-04 16:29N 37°50' E 121°17'0 0.5
2017-Nov-04 16:00N 37°49' E 121°17'3 5.9
2017-Nov-04 15:30N 37°51' E 121°20'612.6
2017-Nov-04 15:00N 37°51' E 121°28'4 7.2
2017-Nov-04 14:31N 37°51' E 121°33'713.1
2017-Nov-04 14:01N 37°51' E 121°41'713.0
2017-Nov-04 13:31N 37°51' E 121°49'713.2
2017-Nov-04 13:00N 37°50' E 121°58'  
Track history (hours):
 
Tides and Currents Weather Stations Pressure Air Temp Water Temp Dewpoint Dewpoint Depression Visibility Wind Speed Wind Dir Waves Ship Positions

Parandowski

Last reported at 2017-Nov-05 13:31 UTC. Time now 2017-Nov-21 04:51 UTC.
Position N 37°43' E 121°07'.
Warning: this ship's position is 15 days out of date.

Length 200 m; draft 11.3 m.

Type: Ship. MMSI: 248403000.

Date/timePositionNaut miles runAvg speedWind from/ knotsBaromVisibWave heightAir tempDewpointWater temp
2017-Nov-05 13:31N 37°43' E 121°07'0 0.0
2017-Nov-05 13:28N 37°43' E 121°07'0 0.0
2017-Nov-05 13:00N 37°43' E 121°07'0 0.0
2017-Nov-05 12:30N 37°43' E 121°07'0 0.0
2017-Nov-05 12:00N 37°43' E 121°07'0 0.3
2017-Nov-05 11:31N 37°43' E 121°07'2 3.6
2017-Nov-05 11:00N 37°45' E 121°08'4 7.0
2017-Nov-05 10:29N 37°47' E 121°12'4 8.7
2017-Nov-05 10:00N 37°49' E 121°16'1 1.2
2017-Nov-05 09:27N 37°49' E 121°17'0 0.1
2017-Nov-05 09:00N 37°49' E 121°17'0 0.1
2017-Nov-05 08:24N 37°50' E 121°17'0 0.1
2017-Nov-05 07:54N 37°50' E 121°17'0 0.0
2017-Nov-05 07:30N 37°50' E 121°17'0 0.1
2017-Nov-05 06:51N 37°50' E 121°17'0 0.1
2017-Nov-05 06:30N 37°50' E 121°17'0 0.3
2017-Nov-05 06:00N 37°50' E 121°17'0 0.3
2017-Nov-05 05:30N 37°50' E 121°17'0 0.0
2017-Nov-05 05:00N 37°50' E 121°17'0 0.0
2017-Nov-05 04:30N 37°50' E 121°17'0 0.0
2017-Nov-05 03:54N 37°50' E 121°17'0 0.1
2017-Nov-05 03:30N 37°50' E 121°17'0 0.0
2017-Nov-05 02:57N 37°50' E 121°17'0 0.0
2017-Nov-05 02:30N 37°50' E 121°17'0 0.1
2017-Nov-05 02:00N 37°50' E 121°17'0 0.0
2017-Nov-05 01:30N 37°50' E 121°17'0 0.1
2017-Nov-05 01:00N 37°50' E 121°17'0 0.1
2017-Nov-05 00:24N 37°50' E 121°17'0 0.0
2017-Nov-05 00:00N 37°50' E 121°17'0 0.0
2017-Nov-04 23:27N 37°50' E 121°17'0 0.1
2017-Nov-04 22:57N 37°50' E 121°17'0 0.1
2017-Nov-04 22:30N 37°50' E 121°17'0 0.0
2017-Nov-04 21:57N 37°50' E 121°17'0 0.0
2017-Nov-04 21:30N 37°50' E 121°17'0 0.0
2017-Nov-04 20:54N 37°50' E 121°17'0 0.1
2017-Nov-04 20:24N 37°50' E 121°17'0 0.0
2017-Nov-04 20:00N 37°50' E 121°17'0 0.1
2017-Nov-04 19:30N 37°50' E 121°17'0 0.1
2017-Nov-04 18:56N 37°50' E 121°17'0 0.0
2017-Nov-04 18:26N 37°50' E 121°17'0 0.0
2017-Nov-04 17:59N 37°50' E 121°17'0 0.0
2017-Nov-04 17:29N 37°50' E 121°17'0 0.1
2017-Nov-04 16:59N 37°50' E 121°17'0 0.1
2017-Nov-04 16:29N 37°50' E 121°17'0 0.5
2017-Nov-04 16:00N 37°49' E 121°17'3 5.9
2017-Nov-04 15:30N 37°51' E 121°20'612.6
2017-Nov-04 15:00N 37°51' E 121°28'4 7.2
2017-Nov-04 14:31N 37°51' E 121°33'713.1
2017-Nov-04 14:01N 37°51' E 121°41'713.0
2017-Nov-04 13:31N 37°51' E 121°49'713.2
2017-Nov-04 13:00N 37°50' E 121°58'  

Dump ship's entire track history